Time;durP1;ratioP1;P1;durP2;ratioP2;P2;SDS_P1;SDS_P2;PMS_P1;PMS_P2;Temp;Humidity;BMP_temperature;BMP_pressure;BME280_temperature;BME280_humidity;BME280_pressure;Samples;Min_cycle;Max_cycle;Signal;HPM_P1;HPM_P2
2021/08/09 00:00:43;;;;;;;1999.90;999.90;;;;;;;19.86;93.51;98420.91;5094871;28;20097;-70
2021/08/09 00:03:10;;;;;;;1999.90;999.90;;;;;;;19.76;93.71;98410.38;5095923;28;20060;-70
2021/08/09 00:05:36;;;;;;;1999.90;999.90;;;;;;;19.74;93.72;98412.72;5093728;28;20044;-70
2021/08/09 00:08:04;;;;;;;1999.90;999.90;;;;;;;19.67;93.97;98419.09;5094491;28;20056;-70
2021/08/09 00:10:31;;;;;;;1999.90;999.90;;;;;;;19.52;94.13;98409.72;5094715;28;20048;-70
2021/08/09 00:12:58;;;;;;;1999.90;999.90;;;;;;;19.60;93.93;98413.41;5093021;28;20117;-70
2021/08/09 00:15:25;;;;;;;1999.90;999.90;;;;;;;19.74;93.41;98404.31;5097658;28;20047;-70
2021/08/09 00:17:52;;;;;;;1999.90;999.90;;;;;;;19.79;92.92;98404.00;5094872;28;20129;-70
2021/08/09 00:20:19;;;;;;;1999.90;999.90;;;;;;;19.82;92.85;98406.03;5095041;28;20098;-70
2021/08/09 00:22:46;;;;;;;1999.90;999.90;;;;;;;19.92;92.04;98408.16;5101267;28;20101;-69
2021/08/09 00:25:14;;;;;;;1999.90;999.90;;;;;;;19.73;92.62;98402.72;5094538;28;20080;-69
2021/08/09 00:27:41;;;;;;;1999.90;999.90;;;;;;;19.68;92.81;98404.69;5104300;28;20421;-69
2021/08/09 00:30:09;;;;;;;1999.90;999.90;;;;;;;19.73;92.67;98422.38;5098027;28;20070;-69
2021/08/09 00:32:36;;;;;;;1999.90;999.90;;;;;;;19.66;92.59;98417.47;5094175;28;20044;-69
2021/08/09 00:35:05;;;;;;;1999.90;999.90;;;;;;;19.63;92.23;98407.81;5095324;28;20048;-70
2021/08/09 00:37:31;;;;;;;1999.90;999.90;;;;;;;19.75;91.68;98408.75;5093386;28;20044;-70
2021/08/09 00:39:58;;;;;;;1999.90;999.90;;;;;;;19.57;92.29;98414.97;5093609;28;20040;-70
2021/08/09 00:42:25;;;;;;;1999.90;999.90;;;;;;;19.27;93.30;98406.66;5094248;28;20052;-70
2021/08/09 00:44:52;;;;;;;1999.90;999.90;;;;;;;19.44;92.29;98402.41;5095127;28;20051;-70
2021/08/09 00:47:18;;;;;;;1999.90;999.90;;;;;;;19.11;93.68;98398.44;5094076;28;20040;-69
2021/08/09 00:49:45;;;;;;;1999.90;999.90;;;;;;;19.04;93.74;98403.94;5093819;28;20126;-69
2021/08/09 00:52:11;;;;;;;1999.90;999.90;;;;;;;18.99;94.53;98407.91;5094961;28;20441;-70
2021/08/09 00:54:38;;;;;;;1999.90;999.90;;;;;;;19.24;92.87;98418.63;5097941;28;20040;-70
2021/08/09 00:57:05;;;;;;;1999.90;999.90;;;;;;;19.10;94.07;98414.47;5093271;28;20074;-69
2021/08/09 00:59:32;;;;;;;1999.90;999.90;;;;;;;19.12;93.39;98416.88;5092686;28;20040;-69
2021/08/09 01:01:59;;;;;;;1999.90;999.90;;;;;;;18.72;95.12;98413.50;5091866;28;20052;-69
2021/08/09 01:04:25;;;;;;;1999.90;999.90;;;;;;;18.60;96.13;98422.16;5092253;28;20063;-69
2021/08/09 01:06:52;;;;;;;1999.90;999.90;;;;;;;18.54;96.55;98418.06;5109910;28;20129;-69
2021/08/09 01:09:33;;;;;;;1999.90;999.90;;;;;;;18.52;96.16;98424.03;5092289;28;20048;-69
2021/08/09 01:12:00;;;;;;;1999.90;999.90;;;;;;;18.52;96.44;98428.81;5092051;28;20048;-69
2021/08/09 01:14:50;;;;;;;1999.90;999.90;;;;;;;18.71;95.22;98430.69;5093002;28;20451;-70
2021/08/09 01:17:19;;;;;;;1999.90;999.90;;;;;;;18.58;95.47;98436.53;5092928;28;20449;-70
2021/08/09 01:20:09;;;;;;;1999.90;999.90;;;;;;;18.60;94.88;98436.94;5092726;28;20048;-70
2021/08/09 01:22:53;;;;;;;1999.90;999.90;;;;;;;18.52;94.82;98445.63;5092266;28;20040;-70
2021/08/09 01:25:37;;;;;;;1999.90;999.90;;;;;;;18.57;94.90;98446.09;5095284;28;20065;-71
2021/08/09 01:28:05;;;;;;;1999.90;999.90;;;;;;;18.76;94.03;98441.59;5092972;28;20089;-71
2021/08/09 01:30:33;;;;;;;1999.90;999.90;;;;;;;18.95;92.90;98441.47;5092339;28;20044;-71
2021/08/09 01:33:00;;;;;;;1999.90;999.90;;;;;;;18.63;93.80;98446.59;5092157;28;20133;-71
2021/08/09 01:35:30;;;;;;;1999.90;999.90;;;;;;;18.77;93.58;98440.38;5093232;28;20071;-71
2021/08/09 01:37:59;;;;;;;1999.90;999.90;;;;;;;18.91;92.65;98443.41;5092511;28;20059;-71
2021/08/09 01:40:26;;;;;;;1999.90;999.90;;;;;;;18.95;92.28;98449.06;5092128;28;20040;-71
2021/08/09 01:42:55;;;;;;;1999.90;999.90;;;;;;;19.00;91.98;98448.75;5096175;28;20486;-70
2021/08/09 01:45:21;;;;;;;1999.90;999.90;;;;;;;18.97;91.78;98449.50;5104849;28;20075;-70
2021/08/09 01:47:49;;;;;;;1999.90;999.90;;;;;;;18.96;91.57;98450.69;5103415;28;20048;-70
2021/08/09 01:50:16;;;;;;;1999.90;999.90;;;;;;;19.09;91.41;98440.06;5102889;28;20341;-70
2021/08/09 01:52:44;;;;;;;1999.90;999.90;;;;;;;19.10;90.56;98448.09;5100013;28;20113;-70
2021/08/09 01:55:13;;;;;;;1999.90;999.90;;;;;;;19.05;90.64;98445.59;5099630;28;20048;-70
2021/08/09 01:57:41;;;;;;;1999.90;999.90;;;;;;;19.01;90.80;98450.38;5093077;28;20149;-70
2021/08/09 02:00:10;;;;;;;1999.90;999.90;;;;;;;18.86;91.17;98448.53;5092707;28;20040;-70
2021/08/09 02:02:37;;;;;;;1999.90;999.90;;;;;;;19.03;90.37;98447.19;5097563;28;20044;-70
2021/08/09 02:05:08;;;;;;;1999.90;999.90;;;;;;;19.15;89.74;98446.94;5092220;28;20065;-70
2021/08/09 02:07:45;;;;;;;1999.90;999.90;;;;;;;19.08;90.12;98442.03;5098913;28;20365;-70
2021/08/09 02:10:16;;;;;;;1999.90;999.90;;;;;;;19.06;89.95;98447.22;5102629;28;20048;-70
2021/08/09 02:12:49;;;;;;;1999.90;999.90;;;;;;;19.00;90.01;98460.75;5092028;28;20052;-70
2021/08/09 02:15:26;;;;;;;1999.90;999.90;;;;;;;19.02;89.93;98468.78;5091344;28;20044;-70
2021/08/09 02:18:01;;;;;;;1999.90;999.90;;;;;;;18.95;89.82;98468.69;5091820;28;20429;-70
2021/08/09 02:20:32;;;;;;;1999.90;999.90;;;;;;;18.86;90.02;98466.19;5091197;28;20322;-70
2021/08/09 02:23:03;;;;;;;1999.90;999.90;;;;;;;18.92;89.88;98458.22;5092400;28;20373;-69
2021/08/09 02:25:33;;;;;;;1999.90;999.90;;;;;;;18.88;89.58;98458.19;5091457;28;20102;-70
2021/08/09 02:28:05;;;;;;;1999.90;999.90;;;;;;;18.87;89.40;98464.97;5093191;28;20074;-70
2021/08/09 02:30:32;;;;;;;1999.90;999.90;;;;;;;18.62;90.69;98461.78;5092466;28;20101;-70
2021/08/09 02:33:00;;;;;;;1999.90;999.90;;;;;;;18.53;90.90;98469.63;5091101;28;20048;-70
2021/08/09 02:35:28;;;;;;;1999.90;999.90;;;;;;;18.60;90.63;98475.34;5091514;28;20125;-70
2021/08/09 02:37:56;;;;;;;1999.90;999.90;;;;;;;18.57;90.49;98488.09;5092076;28;20040;-70
2021/08/09 02:40:24;;;;;;;1999.90;999.90;;;;;;;18.60;90.53;98494.97;5092273;28;20417;-70
2021/08/09 02:42:51;;;;;;;1999.90;999.90;;;;;;;18.53;90.55;98512.44;5097207;28;20125;-70
2021/08/09 02:45:19;;;;;;;1999.90;999.90;;;;;;;18.46;90.63;98515.16;5092021;28;20354;-70
2021/08/09 02:47:48;;;;;;;1999.90;999.90;;;;;;;18.62;90.38;98520.56;5092103;28;20078;-70
2021/08/09 02:50:15;;;;;;;1999.90;999.90;;;;;;;18.25;91.30;98521.16;5091126;28;20040;-70
2021/08/09 02:52:43;;;;;;;1999.90;999.90;;;;;;;18.44;90.81;98517.50;5091263;28;20097;-70
2021/08/09 02:55:12;;;;;;;1999.90;999.90;;;;;;;18.32;90.92;98520.50;5092720;28;20048;-70
2021/08/09 02:57:39;;;;;;;1999.90;999.90;;;;;;;18.40;90.84;98523.03;5090841;28;20052;-70
2021/08/09 03:00:07;;;;;;;1999.90;999.90;;;;;;;18.46;90.26;98517.94;5089567;28;20068;-70
2021/08/09 03:02:36;;;;;;;1999.90;999.90;;;;;;;18.60;89.48;98532.16;5092143;28;20048;-70
2021/08/09 03:05:05;;;;;;;1999.90;999.90;;;;;;;18.61;89.44;98533.00;5092271;28;20109;-70
2021/08/09 03:07:36;;;;;;;1999.90;999.90;;;;;;;18.45;90.14;98535.91;5090676;28;20100;-70
2021/08/09 03:10:06;;;;;;;1999.90;999.90;;;;;;;18.19;91.12;98545.03;5091512;28;20040;-69
2021/08/09 03:12:33;;;;;;;1999.90;999.90;;;;;;;18.37;90.80;98550.94;5090971;28;20055;-69
2021/08/09 03:15:00;;;;;;;1999.90;999.90;;;;;;;18.12;92.29;98554.13;5090858;28;20376;-69
2021/08/09 03:17:27;;;;;;;1999.90;999.90;;;;;;;18.42;90.97;98559.06;5090744;28;20066;-69
2021/08/09 03:19:53;;;;;;;1999.90;999.90;;;;;;;18.58;90.22;98562.53;5099588;28;20044;-69
2021/08/09 03:22:20;;;;;;;1999.90;999.90;;;;;;;18.59;89.77;98563.34;5090966;28;20397;-70
2021/08/09 03:24:46;;;;;;;1999.90;999.90;;;;;;;18.43;89.95;98566.25;5090413;28;20441;-70
2021/08/09 03:27:13;;;;;;;1999.90;999.90;;;;;;;18.46;90.04;98571.13;5107985;28;20048;-69
2021/08/09 03:29:40;;;;;;;1999.90;999.90;;;;;;;18.51;90.01;98575.63;5094457;28;20403;-71
2021/08/09 03:32:06;;;;;;;1999.90;999.90;;;;;;;18.52;90.24;98582.81;5094519;28;20044;-70
2021/08/09 03:34:33;;;;;;;1999.90;999.90;;;;;;;18.48;90.06;98594.75;5095328;28;20333;-70
2021/08/09 03:36:59;;;;;;;1999.90;999.90;;;;;;;18.30;90.20;98602.84;5096305;28;20052;-70
2021/08/09 03:39:26;;;;;;;1999.90;999.90;;;;;;;17.87;91.65;98606.75;5094491;28;20424;-70
2021/08/09 03:41:53;;;;;;;1999.90;999.90;;;;;;;17.92;91.53;98615.72;5094203;28;20052;-70
2021/08/09 03:44:19;;;;;;;1999.90;999.90;;;;;;;17.73;92.17;98622.06;5093709;28;20345;-70
2021/08/09 03:46:46;;;;;;;1999.90;999.90;;;;;;;17.82;91.76;98621.03;5089718;28;20060;-70
2021/08/09 03:49:12;;;;;;;1999.90;999.90;;;;;;;17.51;93.01;98618.00;5093011;28;20079;-70
2021/08/09 03:51:40;;;;;;;1999.90;999.90;;;;;;;17.42;93.56;98625.78;5093807;28;20048;-70
2021/08/09 03:54:07;;;;;;;1999.90;999.90;;;;;;;17.36;94.71;98618.88;5093070;28;20052;-70
2021/08/09 03:56:34;;;;;;;1999.90;999.90;;;;;;;17.22;95.82;98622.13;5091488;28;20392;-70
2021/08/09 03:59:01;;;;;;;1999.90;999.90;;;;;;;17.08;96.37;98619.81;5107069;28;20505;-69
2021/08/09 04:01:38;;;;;;;1999.90;999.90;;;;;;;17.11;97.56;98616.28;5092698;28;20048;-70
2021/08/09 04:04:08;;;;;;;1999.90;999.90;;;;;;;17.59;95.35;98614.16;5091594;28;20412;-70
2021/08/09 04:06:35;;;;;;;1999.90;999.90;;;;;;;17.66;95.47;98609.94;5085220;28;20427;-70
2021/08/09 04:09:02;;;;;;;1999.90;999.90;;;;;;;17.71;95.39;98615.22;5084237;28;20480;-70
2021/08/09 04:11:28;;;;;;;1999.90;999.90;;;;;;;17.77;95.58;98613.75;5087626;28;20052;-70
2021/08/09 04:13:57;;;;;;;1999.90;999.90;;;;;;;17.98;94.55;98607.00;5088878;28;20129;-69
2021/08/09 04:16:24;;;;;;;1999.90;999.90;;;;;;;18.36;93.48;98610.94;5090048;28;20468;-70
2021/08/09 04:18:51;;;;;;;1999.90;999.90;;;;;;;18.66;93.17;98611.88;5088593;28;20138;-70
2021/08/09 04:21:17;;;;;;;1999.90;999.90;;;;;;;18.97;92.36;98607.22;5085890;28;20085;-69
2021/08/09 04:23:44;;;;;;;1999.90;999.90;;;;;;;19.07;91.10;98610.56;5089949;28;20048;-70
2021/08/09 04:26:11;;;;;;;1999.90;999.90;;;;;;;19.06;89.65;98611.75;5090589;28;20115;-70
2021/08/09 04:28:37;;;;;;;1999.90;999.90;;;;;;;19.11;90.65;98608.63;5090691;28;20113;-69
2021/08/09 04:31:04;;;;;;;1999.90;999.90;;;;;;;19.27;90.95;98602.88;5089709;28;20077;-70
2021/08/09 04:33:30;;;;;;;1999.90;999.90;;;;;;;19.58;89.06;98612.91;5090111;28;20451;-70
2021/08/09 04:35:57;;;;;;;1999.90;999.90;;;;;;;19.30;88.54;98608.50;5087401;28;20656;-70
2021/08/09 04:38:23;;;;;;;1999.90;999.90;;;;;;;19.31;89.65;98614.94;5088924;28;20051;-70
2021/08/09 04:40:50;;;;;;;1999.90;999.90;;;;;;;19.33;89.77;98606.94;5088953;28;20391;-70
2021/08/09 04:43:17;;;;;;;1999.90;999.90;;;;;;;19.39;89.87;98615.84;5088087;28;20083;-70
2021/08/09 04:45:44;;;;;;;1999.90;999.90;;;;;;;19.40;89.97;98606.22;5089485;28;20113;-70
2021/08/09 04:48:10;;;;;;;1999.90;999.90;;;;;;;19.47;90.62;98612.78;5089054;28;20056;-70
2021/08/09 04:50:38;;;;;;;1999.90;999.90;;;;;;;19.36;90.96;98601.38;5084625;28;20058;-68
2021/08/09 04:53:08;;;;;;;1999.90;999.90;;;;;;;19.55;90.82;98599.66;5089703;28;20105;-68
2021/08/09 04:55:34;;;;;;;1999.90;999.90;;;;;;;19.63;90.42;98598.53;5089936;28;20048;-69
2021/08/09 04:58:04;;;;;;;1999.90;999.90;;;;;;;20.57;87.76;98602.44;5089681;28;20067;-69
2021/08/09 05:00:30;;;;;;;1999.90;999.90;;;;;;;21.16;86.36;98604.56;5089359;28;20441;-69
2021/08/09 05:02:57;;;;;;;1999.90;999.90;;;;;;;21.69;83.50;98606.94;5104307;28;20083;-69
2021/08/09 05:05:23;;;;;;;1999.90;999.90;;;;;;;21.81;81.20;98609.38;5090187;28;20132;-70
2021/08/09 05:07:54;;;;;;;1999.90;999.90;;;;;;;21.97;79.86;98605.41;5089162;28;20051;-70
2021/08/09 05:10:24;;;;;;;1999.90;999.90;;;;;;;21.74;81.23;98614.19;5090957;28;20560;-69
2021/08/09 05:12:51;;;;;;;1999.90;999.90;;;;;;;21.68;81.94;98613.75;5091234;28;20106;-69
2021/08/09 05:15:21;;;;;;;1999.90;999.90;;;;;;;21.56;84.08;98616.91;5088829;28;20448;-69
2021/08/09 05:17:48;;;;;;;1999.90;999.90;;;;;;;21.66;83.27;98618.16;5088806;28;20056;-69
2021/08/09 05:20:15;;;;;;;1999.90;999.90;;;;;;;21.98;82.13;98629.56;5089961;28;20094;-69
2021/08/09 05:22:41;;;;;;;1999.90;999.90;;;;;;;22.32;80.34;98632.13;5089256;28;20101;-69
2021/08/09 05:25:10;;;;;;;1999.90;999.90;;;;;;;22.09;79.92;98635.22;5089305;28;20056;-68
2021/08/09 05:27:38;;;;;;;1999.90;999.90;;;;;;;22.20;80.51;98641.72;5092310;28;20580;-69
2021/08/09 05:30:06;;;;;;;1999.90;999.90;;;;;;;22.75;78.23;98642.69;5090258;28;20048;-69
2021/08/09 05:32:33;;;;;;;1999.90;999.90;;;;;;;23.05;76.20;98639.47;5088719;28;20052;-67
2021/08/09 05:35:00;;;;;;;1999.90;999.90;;;;;;;23.04;73.42;98633.03;5099740;28;20052;-69
2021/08/09 05:37:28;;;;;;;1999.90;999.90;;;;;;;22.73;76.34;98645.88;5090048;28;20109;-69
2021/08/09 05:40:05;;;;;;;1999.90;999.90;;;;;;;23.32;74.50;98647.53;5088644;28;20090;-69
2021/08/09 05:42:32;;;;;;;1999.90;999.90;;;;;;;22.93;73.64;98648.34;5120363;27;20057;-69
2021/08/09 05:44:58;;;;;;;1999.90;999.90;;;;;;;22.98;69.13;98650.75;5089705;28;20052;-69
2021/08/09 05:47:25;;;;;;;1999.90;999.90;;;;;;;22.51;70.99;98648.66;5089003;28;20090;-67
2021/08/09 05:49:53;;;;;;;1999.90;999.90;;;;;;;22.74;73.40;98647.50;5089462;28;20425;-67
2021/08/09 05:52:21;;;;;;;1999.90;999.90;;;;;;;22.06;77.44;98665.00;5089389;28;20109;-66
2021/08/09 05:54:48;;;;;;;1999.90;999.90;;;;;;;22.55;77.69;98659.13;5089591;28;20087;-66
2021/08/09 05:57:15;;;;;;;1999.90;999.90;;;;;;;22.68;72.15;98660.38;5088503;28;20056;-69
2021/08/09 05:59:42;;;;;;;1999.90;999.90;;;;;;;22.61;73.62;98661.19;5088932;28;20048;-69
2021/08/09 06:02:08;;;;;;;1999.90;999.90;;;;;;;22.87;70.98;98664.84;5088122;28;20070;-68
2021/08/09 06:04:35;;;;;;;1999.90;999.90;;;;;;;22.39;70.64;98671.59;5088777;28;20349;-68
2021/08/09 06:07:02;;;;;;;1999.90;999.90;;;;;;;23.13;68.80;98665.69;5088427;28;20338;-68
2021/08/09 06:09:29;;;;;;;1999.90;999.90;;;;;;;23.56;67.11;98657.16;5089203;28;20090;-68
2021/08/09 06:11:55;;;;;;;1999.90;999.90;;;;;;;21.34;74.71;98658.13;5095540;28;20432;-68
2021/08/09 06:14:22;;;;;;;1999.90;999.90;;;;;;;22.14;73.01;98666.63;5094267;28;20048;-68
2021/08/09 06:16:48;;;;;;;1999.90;999.90;;;;;;;22.38;71.93;98667.16;5104232;28;20051;-68
2021/08/09 06:19:15;;;;;;;1999.90;999.90;;;;;;;22.84;72.13;98674.91;5088692;28;20105;-68
2021/08/09 06:21:41;;;;;;;1999.90;999.90;;;;;;;22.70;71.04;98669.22;5088576;28;20429;-68
2021/08/09 06:24:08;;;;;;;1999.90;999.90;;;;;;;22.88;71.13;98676.91;5089027;28;20467;-68
2021/08/09 06:26:34;;;;;;;1999.90;999.90;;;;;;;23.12;71.24;98672.50;5089613;28;20051;-68
2021/08/09 06:29:01;;;;;;;1999.90;999.90;;;;;;;23.14;71.39;98676.56;5088406;28;20052;-68
2021/08/09 06:31:28;;;;;;;1999.90;999.90;;;;;;;23.32;69.29;98681.41;5088215;28;20089;-68
2021/08/09 06:33:55;;;;;;;1999.90;999.90;;;;;;;23.31;69.87;98679.78;5087439;28;20048;-67
2021/08/09 06:36:21;;;;;;;1999.90;999.90;;;;;;;23.28;70.15;98686.22;5088215;28;20105;-68
2021/08/09 06:38:48;;;;;;;1999.90;999.90;;;;;;;23.12;69.69;98678.16;5087665;28;20449;-68
2021/08/09 06:41:24;;;;;;;1999.90;999.90;;;;;;;23.48;67.71;98678.97;5088856;28;20490;-68
2021/08/09 06:43:50;;;;;;;1999.90;999.90;;;;;;;23.37;70.59;98678.97;5088519;28;20106;-68
2021/08/09 06:46:17;;;;;;;1999.90;999.90;;;;;;;23.48;68.60;98678.97;5087558;28;20052;-68
2021/08/09 06:48:44;;;;;;;1999.90;999.90;;;;;;;23.71;68.70;98687.00;5086297;28;20479;-67
2021/08/09 06:51:10;;;;;;;1999.90;999.90;;;;;;;24.31;66.87;98683.59;5101868;28;20075;-68
2021/08/09 06:53:37;;;;;;;1999.90;999.90;;;;;;;24.15;62.99;98681.25;5095853;28;20059;-68
2021/08/09 06:56:03;;;;;;;1999.90;999.90;;;;;;;24.65;64.16;98683.03;5096121;28;20129;-68
2021/08/09 06:58:30;;;;;;;1999.90;999.90;;;;;;;25.02;62.87;98685.22;5101379;28;20051;-68
2021/08/09 07:00:57;;;;;;;1999.90;999.90;;;;;;;25.21;62.93;98683.84;5091634;28;20374;-68
2021/08/09 07:03:23;;;;;;;1999.90;999.90;;;;;;;25.00;60.74;98684.81;5092208;28;20105;-68
2021/08/09 07:05:50;;;;;;;1999.90;999.90;;;;;;;25.23;61.82;98681.41;5093325;28;20101;-68
2021/08/09 07:08:17;;;;;;;1999.90;999.90;;;;;;;24.37;59.53;98679.13;5106383;28;20417;-68
2021/08/09 07:10:44;;;;;;;1999.90;999.90;;;;;;;24.48;60.59;98674.22;5094300;28;20105;-67
2021/08/09 07:13:11;;;;;;;1999.90;999.90;;;;;;;25.04;60.19;98679.13;5094493;28;20105;-67
2021/08/09 07:15:37;;;;;;;1999.90;999.90;;;;;;;24.41;61.91;98663.78;5097760;28;20509;-67
2021/08/09 07:18:04;;;;;;;1999.90;999.90;;;;;;;24.52;58.77;98674.19;5090454;28;20139;-67
2021/08/09 07:20:30;;;;;;;1999.90;999.90;;;;;;;25.00;60.11;98670.69;5090636;28;20125;-67
2021/08/09 07:22:57;;;;;;;1999.90;999.90;;;;;;;24.98;60.43;98680.78;5092589;28;20101;-67
2021/08/09 07:25:24;;;;;;;1999.90;999.90;;;;;;;23.69;61.77;98683.75;5092262;28;20052;-69
2021/08/09 07:27:50;;;;;;;1999.90;999.90;;;;;;;24.00;61.27;98688.97;5090966;28;20060;-67
2021/08/09 07:30:18;;;;;;;1999.90;999.90;;;;;;;24.19;60.33;98679.19;5092015;28;20480;-67
2021/08/09 07:32:45;;;;;;;1999.90;999.90;;;;;;;24.44;61.75;98682.72;5092335;28;20137;-67
2021/08/09 07:35:12;;;;;;;1999.90;999.90;;;;;;;24.86;59.08;98684.91;5091754;28;20078;-68
2021/08/09 07:37:40;;;;;;;1999.90;999.90;;;;;;;24.77;56.36;98683.38;5090931;28;20494;-68
2021/08/09 07:40:08;;;;;;;1999.90;999.90;;;;;;;25.05;57.58;98677.91;5092471;28;20408;-68
2021/08/09 07:42:35;;;;;;;1999.90;999.90;;;;;;;24.39;59.86;98677.50;5091301;28;20048;-69
2021/08/09 07:45:01;;;;;;;1999.90;999.90;;;;;;;24.71;59.79;98678.56;5089906;28;20052;-68
2021/08/09 07:47:28;;;;;;;1999.90;999.90;;;;;;;25.03;59.05;98672.69;5092688;28;20080;-68
2021/08/09 07:49:54;;;;;;;1999.90;999.90;;;;;;;24.94;58.86;98678.81;5091538;28;20056;-67
2021/08/09 07:52:21;;;;;;;1999.90;999.90;;;;;;;25.09;57.49;98681.53;5090524;28;20429;-67
2021/08/09 07:54:47;;;;;;;1999.90;999.90;;;;;;;25.08;57.63;98679.91;5098020;28;20105;-68
2021/08/09 07:57:14;;;;;;;1999.90;999.90;;;;;;;25.40;57.94;98684.56;5091279;28;20060;-68
2021/08/09 07:59:41;;;;;;;1999.90;999.90;;;;;;;25.65;54.40;98685.09;5090080;28;20058;-68
2021/08/09 08:02:07;;;;;;;1999.90;999.90;;;;;;;25.07;55.98;98683.97;5090715;28;20393;-68
2021/08/09 08:04:34;;;;;;;1999.90;999.90;;;;;;;24.81;58.77;98683.34;5091748;28;20445;-68
2021/08/09 08:07:01;;;;;;;1999.90;999.90;;;;;;;25.76;59.19;98685.00;5098554;28;20404;-68
2021/08/09 08:09:27;;;;;;;1999.90;999.90;;;;;;;26.11;53.16;98693.53;5100227;28;20455;-68
2021/08/09 08:11:54;;;;;;;1999.90;999.90;;;;;;;25.43;54.79;98693.00;5089525;28;20509;-68
2021/08/09 08:14:20;;;;;;;1999.90;999.90;;;;;;;25.62;54.50;98693.63;5090606;28;20440;-68
2021/08/09 08:16:51;;;;;;;1999.90;999.90;;;;;;;25.54;53.94;98692.88;5090751;28;20052;-68
2021/08/09 08:19:18;;;;;;;1999.90;999.90;;;;;;;26.41;54.47;98703.28;5090794;28;20074;-68
2021/08/09 08:21:44;;;;;;;1999.90;999.90;;;;;;;27.23;51.28;98699.28;5090330;28;20498;-68
2021/08/09 08:24:11;;;;;;;1999.90;999.90;;;;;;;26.86;51.89;98697.44;5095574;28;20052;-68
2021/08/09 08:26:38;;;;;;;1999.90;999.90;;;;;;;26.16;51.65;98707.25;5102903;28;20043;-68
2021/08/09 08:29:04;;;;;;;1999.90;999.90;;;;;;;26.70;52.41;98703.75;5091497;28;20044;-68
2021/08/09 08:31:31;;;;;;;1999.90;999.90;;;;;;;26.37;51.55;98706.19;5089381;28;20071;-68
2021/08/09 08:33:58;;;;;;;1999.90;999.90;;;;;;;26.05;50.28;98700.91;5089829;28;20054;-68
2021/08/09 08:36:24;;;;;;;1999.90;999.90;;;;;;;26.53;48.97;98697.06;5090869;28;20455;-68
2021/08/09 08:38:51;;;;;;;1999.90;999.90;;;;;;;26.78;48.50;98702.44;5090492;28;20044;-68
2021/08/09 08:41:18;;;;;;;1999.90;999.90;;;;;;;26.98;48.77;98696.84;5090425;28;20108;-68
2021/08/09 08:43:45;;;;;;;1999.90;999.90;;;;;;;27.02;48.70;98693.94;5105865;28;20047;-68
2021/08/09 08:46:11;;;;;;;1999.90;999.90;;;;;;;26.30;50.42;98695.72;5090672;28;20056;-68
2021/08/09 08:48:38;;;;;;;1999.90;999.90;;;;;;;26.53;54.15;98686.53;5090093;28;20752;-68
2021/08/09 08:51:21;;;;;;;1999.90;999.90;;;;;;;27.18;49.03;98690.44;5090113;28;20044;-68
2021/08/09 08:53:49;;;;;;;1999.90;999.90;;;;;;;26.86;46.72;98703.13;5089739;28;20429;-68
2021/08/09 08:56:15;;;;;;;1999.90;999.90;;;;;;;27.17;49.97;98692.50;5090339;28;20097;-68
2021/08/09 08:58:42;;;;;;;1999.90;999.90;;;;;;;26.56;47.59;98690.53;5089327;28;20083;-68
2021/08/09 09:01:09;;;;;;;1999.90;999.90;;;;;;;27.01;46.82;98698.03;5089836;28;21524;-69
2021/08/09 09:03:39;;;;;;;1999.90;999.90;;;;;;;27.11;45.57;98696.25;5090472;28;20052;-68
2021/08/09 09:06:10;;;;;;;1999.90;999.90;;;;;;;27.25;41.25;98704.53;5093324;28;20052;-68
2021/08/09 09:08:47;;;;;;;1999.90;999.90;;;;;;;27.84;42.34;98696.63;5089650;28;20052;-66
2021/08/09 09:11:37;;;;;;;1999.90;999.90;;;;;;;28.17;43.04;98702.53;5089601;28;20101;-68
2021/08/09 09:14:05;;;;;;;1999.90;999.90;;;;;;;27.93;43.63;98694.03;5089286;28;20109;-67
2021/08/09 09:16:47;;;;;;;1999.90;999.90;;;;;;;28.05;43.84;98690.56;5091352;28;20142;-67
2021/08/09 09:19:59;;;;;;;1999.90;999.90;;;;;;;28.70;43.02;98694.13;5100831;28;20116;-67
2021/08/09 09:22:27;;;;;;;1999.90;999.90;;;;;;;27.91;43.04;98691.63;5073322;28;20507;-67
2021/08/09 09:24:55;;;;;;;1999.90;999.90;;;;;;;28.05;45.73;98689.78;5090605;28;20048;-67
2021/08/09 09:27:30;;;;;;;1999.90;999.90;;;;;;;28.45;41.24;98689.78;5090031;28;20048;-67
2021/08/09 09:29:57;;;;;;;1999.90;999.90;;;;;;;28.62;41.33;98702.81;5088818;28;20051;-67
2021/08/09 09:32:25;;;;;;;1999.90;999.90;;;;;;;28.38;43.62;98695.59;5089631;28;20052;-67
2021/08/09 09:34:56;;;;;;;1999.90;999.90;;;;;;;28.05;43.00;98698.31;5089311;28;20051;-67
2021/08/09 09:37:28;;;;;;;1999.90;999.90;;;;;;;28.54;41.86;98697.69;5088828;28;20048;-67
2021/08/09 09:40:11;;;;;;;1999.90;999.90;;;;;;;29.21;39.65;98697.44;5089791;28;20055;-67
2021/08/09 09:42:41;;;;;;;1999.90;999.90;;;;;;;29.67;40.73;98694.63;5089880;28;20043;-67
2021/08/09 09:45:22;;;;;;;1999.90;999.90;;;;;;;29.28;37.45;98694.41;5089006;28;20078;-67
2021/08/09 09:48:03;;;;;;;1999.90;999.90;;;;;;;28.58;41.26;98693.53;5088716;28;20056;-67
2021/08/09 09:50:30;;;;;;;1999.90;999.90;;;;;;;28.96;41.10;98690.25;5089298;28;20060;-67
2021/08/09 09:53:12;;;;;;;1999.90;999.90;;;;;;;28.65;42.82;98695.44;5089751;28;20082;-67
2021/08/09 09:55:41;;;;;;;1999.90;999.90;;;;;;;28.36;40.30;98687.53;5088846;28;20048;-67
2021/08/09 09:58:08;;;;;;;1999.90;999.90;;;;;;;27.79;43.19;98697.16;5094709;28;20747;-67
2021/08/09 10:00:35;;;;;;;1999.90;999.90;;;;;;;27.06;44.19;98689.84;5089670;28;20056;-68
2021/08/09 10:03:03;;;;;;;1999.90;999.90;;;;;;;25.21;44.69;98694.38;5089938;28;20117;-66
2021/08/09 10:05:30;;;;;;;1999.90;999.90;;;;;;;26.88;47.38;98692.13;5088224;28;20409;-66
2021/08/09 10:08:00;;;;;;;1999.90;999.90;;;;;;;28.15;42.72;98682.25;5088682;28;20048;-66
2021/08/09 10:10:27;;;;;;;1999.90;999.90;;;;;;;28.34;43.45;98689.97;5089484;28;20062;-66
2021/08/09 10:12:58;;;;;;;1999.90;999.90;;;;;;;28.72;38.83;98692.44;5088054;28;20058;-66
2021/08/09 10:15:25;;;;;;;1999.90;999.90;;;;;;;29.65;37.66;98694.28;5091441;28;20083;-66
2021/08/09 10:17:53;;;;;;;1999.90;999.90;;;;;;;29.61;36.99;98696.41;5088748;28;20055;-68
2021/08/09 10:20:22;;;;;;;1999.90;999.90;;;;;;;29.32;36.94;98695.09;5088282;28;20436;-68
2021/08/09 10:22:56;;;;;;;1999.90;999.90;;;;;;;29.18;35.22;98695.44;5088012;28;20101;-68
2021/08/09 10:25:46;;;;;;;1999.90;999.90;;;;;;;29.05;36.80;98686.00;5088901;28;20052;-68
2021/08/09 10:28:13;;;;;;;1999.90;999.90;;;;;;;29.74;34.39;98679.41;5091485;28;20048;-68
2021/08/09 10:30:40;;;;;;;1999.90;999.90;;;;;;;30.44;31.98;98679.91;5096466;28;20055;-68
2021/08/09 10:33:10;;;;;;;1999.90;999.90;;;;;;;30.12;36.57;98685.28;5096802;28;20054;-65
2021/08/09 10:35:46;;;;;;;1999.90;999.90;;;;;;;29.51;34.42;98684.84;5087842;28;20101;-68
2021/08/09 10:38:23;;;;;;;1999.90;999.90;;;;;;;28.66;39.12;98674.31;5088723;28;20060;-68
2021/08/09 10:41:08;;;;;;;1999.90;999.90;;;;;;;28.24;39.11;98676.78;5087473;28;20376;-66
2021/08/09 10:43:42;;;;;;;1999.90;999.90;;;;;;;28.05;37.87;98665.00;5087266;28;20059;-65
2021/08/09 10:46:37;;;;;;;1999.90;999.90;;;;;;;28.84;41.97;98664.53;5088920;28;20079;-68
2021/08/09 10:49:06;;;;;;;1999.90;999.90;;;;;;;29.62;38.17;98661.78;5065996;28;20056;-66
2021/08/09 10:51:50;;;;;;;1999.90;999.90;;;;;;;30.36;38.63;98665.03;5088028;28;20077;-67
2021/08/09 10:54:37;;;;;;;1999.90;999.90;;;;;;;30.64;36.94;98671.16;5092572;28;20056;-67
2021/08/09 10:57:04;;;;;;;1999.90;999.90;;;;;;;31.04;34.60;98662.97;5087865;28;20589;-66
2021/08/09 10:59:37;;;;;;;1999.90;999.90;;;;;;;31.54;34.66;98671.91;5089120;28;20564;-67
2021/08/09 11:02:04;;;;;;;1999.90;999.90;;;;;;;30.90;33.97;98680.53;5087605;28;20040;-67